sensor_id;sensor_type;location;lat;lon;timestamp;temperature;humidity
68912;SHT31;55953;51.650;-0.522;2022-11-04T00:02:13;8.24;91.28
68912;SHT31;55953;51.650;-0.522;2022-11-04T00:04:41;8.16;91.40
68912;SHT31;55953;51.650;-0.522;2022-11-04T00:07:08;8.10;91.56
68912;SHT31;55953;51.650;-0.522;2022-11-04T00:09:56;8.07;91.65
68912;SHT31;55953;51.650;-0.522;2022-11-04T00:12:24;8.06;91.85
68912;SHT31;55953;51.650;-0.522;2022-11-04T00:14:52;8.04;91.84
68912;SHT31;55953;51.650;-0.522;2022-11-04T00:17:21;8.02;91.94
68912;SHT31;55953;51.650;-0.522;2022-11-04T00:19:53;8.02;92.00
68912;SHT31;55953;51.650;-0.522;2022-11-04T00:22:46;8.01;92.08
68912;SHT31;55953;51.650;-0.522;2022-11-04T00:25:33;8.01;92.20
68912;SHT31;55953;51.650;-0.522;2022-11-04T00:28:20;7.99;92.20
68912;SHT31;55953;51.650;-0.522;2022-11-04T00:31:07;8.02;92.17
68912;SHT31;55953;51.650;-0.522;2022-11-04T00:33:55;8.05;92.10
68912;SHT31;55953;51.650;-0.522;2022-11-04T00:36:25;8.08;92.05
68912;SHT31;55953;51.650;-0.522;2022-11-04T00:38:53;8.12;92.02
68912;SHT31;55953;51.650;-0.522;2022-11-04T00:41:21;8.15;92.00
68912;SHT31;55953;51.650;-0.522;2022-11-04T00:43:54;8.18;91.92
68912;SHT31;55953;51.650;-0.522;2022-11-04T00:46:25;8.20;91.87
68912;SHT31;55953;51.650;-0.522;2022-11-04T00:48:55;8.22;91.81
68912;SHT31;55953;51.650;-0.522;2022-11-04T00:51:24;8.27;91.92
68912;SHT31;55953;51.650;-0.522;2022-11-04T00:53:52;8.31;91.78
68912;SHT31;55953;51.650;-0.522;2022-11-04T00:56:21;8.31;91.70
68912;SHT31;55953;51.650;-0.522;2022-11-04T00:58:49;8.32;91.49
68912;SHT31;55953;51.650;-0.522;2022-11-04T01:01:17;8.26;91.38
68912;SHT31;55953;51.650;-0.522;2022-11-04T01:03:47;8.21;91.40
68912;SHT31;55953;51.650;-0.522;2022-11-04T01:06:18;8.17;91.31
68912;SHT31;55953;51.650;-0.522;2022-11-04T01:08:48;8.15;91.45
68912;SHT31;55953;51.650;-0.522;2022-11-04T01:11:23;8.15;91.38
68912;SHT31;55953;51.650;-0.522;2022-11-04T01:13:51;8.08;91.26
68912;SHT31;55953;51.650;-0.522;2022-11-04T01:16:23;8.04;91.36
68912;SHT31;55953;51.650;-0.522;2022-11-04T01:18:57;8.04;91.39
68912;SHT31;55953;51.650;-0.522;2022-11-04T01:21:25;8.02;91.36
68912;SHT31;55953;51.650;-0.522;2022-11-04T01:23:53;8.02;91.42
68912;SHT31;55953;51.650;-0.522;2022-11-04T01:26:23;8.03;91.40
68912;SHT31;55953;51.650;-0.522;2022-11-04T01:28:54;8.01;91.45
68912;SHT31;55953;51.650;-0.522;2022-11-04T01:31:24;8.03;91.45
68912;SHT31;55953;51.650;-0.522;2022-11-04T01:33:55;8.03;91.46
68912;SHT31;55953;51.650;-0.522;2022-11-04T01:36:25;8.06;91.57
68912;SHT31;55953;51.650;-0.522;2022-11-04T01:38:55;8.08;91.49
68912;SHT31;55953;51.650;-0.522;2022-11-04T01:41:25;8.07;91.56
68912;SHT31;55953;51.650;-0.522;2022-11-04T01:46:33;8.01;91.40
68912;SHT31;55953;51.650;-0.522;2022-11-04T01:52:11;8.04;91.51
68912;SHT31;55953;51.650;-0.522;2022-11-04T01:54:48;8.03;91.59
68912;SHT31;55953;51.650;-0.522;2022-11-04T01:57:24;8.02;91.66
68912;SHT31;55953;51.650;-0.522;2022-11-04T02:00:00;8.01;91.72
68912;SHT31;55953;51.650;-0.522;2022-11-04T02:02:45;8.00;91.63
68912;SHT31;55953;51.650;-0.522;2022-11-04T02:05:21;8.00;91.62
68912;SHT31;55953;51.650;-0.522;2022-11-04T02:07:50;8.02;91.67
68912;SHT31;55953;51.650;-0.522;2022-11-04T02:10:25;8.04;91.64
68912;SHT31;55953;51.650;-0.522;2022-11-04T02:12:56;8.04;91.55
68912;SHT31;55953;51.650;-0.522;2022-11-04T02:15:32;8.04;91.53
68912;SHT31;55953;51.650;-0.522;2022-11-04T02:18:27;8.04;91.56
68912;SHT31;55953;51.650;-0.522;2022-11-04T02:30:11;7.97;91.50
68912;SHT31;55953;51.650;-0.522;2022-11-04T02:38:19;7.94;91.47
68912;SHT31;55953;51.650;-0.522;2022-11-04T02:44:21;7.96;91.49
68912;SHT31;55953;51.650;-0.522;2022-11-04T02:47:12;7.95;91.48
68912;SHT31;55953;51.650;-0.522;2022-11-04T02:55:23;7.99;91.48
68912;SHT31;55953;51.650;-0.522;2022-11-04T02:57:58;7.99;91.43
68912;SHT31;55953;51.650;-0.522;2022-11-04T03:00:29;8.00;91.46
68912;SHT31;55953;51.650;-0.522;2022-11-04T03:02:59;8.00;91.42
68912;SHT31;55953;51.650;-0.522;2022-11-04T03:05:34;7.98;91.43
68912;SHT31;55953;51.650;-0.522;2022-11-04T03:08:11;7.95;91.46
68912;SHT31;55953;51.650;-0.522;2022-11-04T03:10:50;7.95;91.44
68912;SHT31;55953;51.650;-0.522;2022-11-04T03:13:24;7.92;91.45
68912;SHT31;55953;51.650;-0.522;2022-11-04T03:16:02;7.88;91.47
68912;SHT31;55953;51.650;-0.522;2022-11-04T03:21:23;7.81;91.52
68912;SHT31;55953;51.650;-0.522;2022-11-04T03:23:58;7.77;91.63
68912;SHT31;55953;51.650;-0.522;2022-11-04T03:26:42;7.74;91.66
68912;SHT31;55953;51.650;-0.522;2022-11-04T03:34:43;7.62;91.81
68912;SHT31;55953;51.650;-0.522;2022-11-04T03:37:11;7.58;91.88
68912;SHT31;55953;51.650;-0.522;2022-11-04T03:39:39;7.57;91.94
68912;SHT31;55953;51.650;-0.522;2022-11-04T03:42:08;7.54;91.96
68912;SHT31;55953;51.650;-0.522;2022-11-04T03:44:48;7.53;91.90
68912;SHT31;55953;51.650;-0.522;2022-11-04T03:47:20;7.51;91.93
68912;SHT31;55953;51.650;-0.522;2022-11-04T03:49:52;7.47;91.89
68912;SHT31;55953;51.650;-0.522;2022-11-04T03:52:33;7.44;91.78
68912;SHT31;55953;51.650;-0.522;2022-11-04T03:55:02;7.41;91.73
68912;SHT31;55953;51.650;-0.522;2022-11-04T03:57:50;7.38;91.80
68912;SHT31;55953;51.650;-0.522;2022-11-04T04:00:48;7.36;91.77
68912;SHT31;55953;51.650;-0.522;2022-11-04T04:03:51;7.35;91.83
68912;SHT31;55953;51.650;-0.522;2022-11-04T04:06:30;7.35;92.13
68912;SHT31;55953;51.650;-0.522;2022-11-04T04:09:08;7.36;92.37
68912;SHT31;55953;51.650;-0.522;2022-11-04T04:11:52;7.37;92.55
68912;SHT31;55953;51.650;-0.522;2022-11-04T04:14:30;7.42;92.61
68912;SHT31;55953;51.650;-0.522;2022-11-04T04:20:00;7.49;92.81
68912;SHT31;55953;51.650;-0.522;2022-11-04T04:22:34;7.51;93.00
68912;SHT31;55953;51.650;-0.522;2022-11-04T04:25:08;7.53;93.06
68912;SHT31;55953;51.650;-0.522;2022-11-04T04:27:58;7.58;92.95
68912;SHT31;55953;51.650;-0.522;2022-11-04T04:30:28;7.59;92.98
68912;SHT31;55953;51.650;-0.522;2022-11-04T04:32:58;7.62;92.87
68912;SHT31;55953;51.650;-0.522;2022-11-04T04:35:33;7.64;92.72
68912;SHT31;55953;51.650;-0.522;2022-11-04T04:38:25;7.63;92.39
68912;SHT31;55953;51.650;-0.522;2022-11-04T04:41:21;7.59;92.27
68912;SHT31;55953;51.650;-0.522;2022-11-04T04:47:05;7.45;92.13
68912;SHT31;55953;51.650;-0.522;2022-11-04T04:49:35;7.41;92.12
68912;SHT31;55953;51.650;-0.522;2022-11-04T04:52:03;7.31;92.32
68912;SHT31;55953;51.650;-0.522;2022-11-04T04:54:34;7.26;92.30
68912;SHT31;55953;51.650;-0.522;2022-11-04T04:57:02;7.23;92.29
68912;SHT31;55953;51.650;-0.522;2022-11-04T04:59:30;7.20;92.32
68912;SHT31;55953;51.650;-0.522;2022-11-04T05:01:57;7.16;92.36
68912;SHT31;55953;51.650;-0.522;2022-11-04T05:04:26;7.15;92.24
68912;SHT31;55953;51.650;-0.522;2022-11-04T05:06:54;7.15;92.28
68912;SHT31;55953;51.650;-0.522;2022-11-04T05:09:21;7.14;92.20
68912;SHT31;55953;51.650;-0.522;2022-11-04T05:11:49;7.13;92.13
68912;SHT31;55953;51.650;-0.522;2022-11-04T05:14:17;7.09;92.00
68912;SHT31;55953;51.650;-0.522;2022-11-04T05:16:45;7.07;91.99
68912;SHT31;55953;51.650;-0.522;2022-11-04T05:19:13;7.04;92.02
68912;SHT31;55953;51.650;-0.522;2022-11-04T05:21:41;7.02;91.99
68912;SHT31;55953;51.650;-0.522;2022-11-04T05:24:09;7.01;91.95
68912;SHT31;55953;51.650;-0.522;2022-11-04T05:26:37;6.97;92.00
68912;SHT31;55953;51.650;-0.522;2022-11-04T05:29:05;6.95;92.00
68912;SHT31;55953;51.650;-0.522;2022-11-04T05:31:33;6.94;91.99
68912;SHT31;55953;51.650;-0.522;2022-11-04T05:34:01;6.93;91.94
68912;SHT31;55953;51.650;-0.522;2022-11-04T05:36:29;6.90;91.82
68912;SHT31;55953;51.650;-0.522;2022-11-04T05:38:57;6.88;91.85
68912;SHT31;55953;51.650;-0.522;2022-11-04T05:41:25;6.85;91.85
68912;SHT31;55953;51.650;-0.522;2022-11-04T05:43:54;6.83;91.86
68912;SHT31;55953;51.650;-0.522;2022-11-04T05:46:24;6.82;91.85
68912;SHT31;55953;51.650;-0.522;2022-11-04T05:48:54;6.79;91.82
68912;SHT31;55953;51.650;-0.522;2022-11-04T05:51:23;6.77;91.76
68912;SHT31;55953;51.650;-0.522;2022-11-04T05:53:54;6.75;91.75
68912;SHT31;55953;51.650;-0.522;2022-11-04T05:56:22;6.74;91.82
68912;SHT31;55953;51.650;-0.522;2022-11-04T05:58:50;6.73;91.76
68912;SHT31;55953;51.650;-0.522;2022-11-04T06:01:28;6.71;91.70
68912;SHT31;55953;51.650;-0.522;2022-11-04T06:04:03;6.69;91.67
68912;SHT31;55953;51.650;-0.522;2022-11-04T06:06:33;6.68;91.62
68912;SHT31;55953;51.650;-0.522;2022-11-04T06:09:02;6.66;91.67
68912;SHT31;55953;51.650;-0.522;2022-11-04T06:11:30;6.64;91.63
68912;SHT31;55953;51.650;-0.522;2022-11-04T06:14:00;6.61;91.60
68912;SHT31;55953;51.650;-0.522;2022-11-04T06:16:28;6.61;91.63
68912;SHT31;55953;51.650;-0.522;2022-11-04T06:18:56;6.61;91.65
68912;SHT31;55953;51.650;-0.522;2022-11-04T06:21:32;6.59;91.59
68912;SHT31;55953;51.650;-0.522;2022-11-04T06:24:00;6.55;91.54
68912;SHT31;55953;51.650;-0.522;2022-11-04T06:26:28;6.53;91.49
68912;SHT31;55953;51.650;-0.522;2022-11-04T06:28:57;6.49;91.50
68912;SHT31;55953;51.650;-0.522;2022-11-04T06:31:25;6.47;91.48
68912;SHT31;55953;51.650;-0.522;2022-11-04T06:33:53;6.43;91.48
68912;SHT31;55953;51.650;-0.522;2022-11-04T06:36:22;6.40;91.43
68912;SHT31;55953;51.650;-0.522;2022-11-04T06:38:50;6.36;91.57
68912;SHT31;55953;51.650;-0.522;2022-11-04T06:41:18;6.33;91.52
68912;SHT31;55953;51.650;-0.522;2022-11-04T06:43:46;6.30;91.54
68912;SHT31;55953;51.650;-0.522;2022-11-04T06:48:54;6.27;91.69
68912;SHT31;55953;51.650;-0.522;2022-11-04T06:51:25;6.29;91.70
68912;SHT31;55953;51.650;-0.522;2022-11-04T06:53:53;6.28;91.66
68912;SHT31;55953;51.650;-0.522;2022-11-04T06:56:22;6.25;91.53
68912;SHT31;55953;51.650;-0.522;2022-11-04T06:58:51;6.23;91.49
68912;SHT31;55953;51.650;-0.522;2022-11-04T07:01:21;6.19;91.50
68912;SHT31;55953;51.650;-0.522;2022-11-04T07:03:54;6.14;91.46
68912;SHT31;55953;51.650;-0.522;2022-11-04T07:06:25;6.10;91.47
68912;SHT31;55953;51.650;-0.522;2022-11-04T07:08:59;6.08;91.55
68912;SHT31;55953;51.650;-0.522;2022-11-04T07:11:30;6.07;91.49
68912;SHT31;55953;51.650;-0.522;2022-11-04T07:14:00;6.06;91.45
68912;SHT31;55953;51.650;-0.522;2022-11-04T07:16:27;6.04;91.39
68912;SHT31;55953;51.650;-0.522;2022-11-04T07:18:55;6.02;91.41
68912;SHT31;55953;51.650;-0.522;2022-11-04T07:21:24;6.00;91.39
68912;SHT31;55953;51.650;-0.522;2022-11-04T07:23:52;6.03;91.46
68912;SHT31;55953;51.650;-0.522;2022-11-04T07:26:20;6.03;91.44
68912;SHT31;55953;51.650;-0.522;2022-11-04T07:28:48;6.03;91.37
68912;SHT31;55953;51.650;-0.522;2022-11-04T07:31:16;6.01;91.28
68912;SHT31;55953;51.650;-0.522;2022-11-04T07:33:44;6.00;91.30
68912;SHT31;55953;51.650;-0.522;2022-11-04T07:36:16;6.00;91.33
68912;SHT31;55953;51.650;-0.522;2022-11-04T07:38:45;5.99;91.24
68912;SHT31;55953;51.650;-0.522;2022-11-04T07:41:14;6.00;91.23
68912;SHT31;55953;51.650;-0.522;2022-11-04T07:43:46;6.02;91.20
68912;SHT31;55953;51.650;-0.522;2022-11-04T07:46:16;6.05;91.16
68912;SHT31;55953;51.650;-0.522;2022-11-04T07:48:45;6.06;91.12
68912;SHT31;55953;51.650;-0.522;2022-11-04T07:51:15;6.06;91.01
68912;SHT31;55953;51.650;-0.522;2022-11-04T07:53:47;6.08;91.01
68912;SHT31;55953;51.650;-0.522;2022-11-04T07:56:14;6.07;90.91
68912;SHT31;55953;51.650;-0.522;2022-11-04T07:58:43;6.10;90.95
68912;SHT31;55953;51.650;-0.522;2022-11-04T08:01:13;6.11;90.88
68912;SHT31;55953;51.650;-0.522;2022-11-04T08:03:44;6.16;90.96
68912;SHT31;55953;51.650;-0.522;2022-11-04T08:06:13;6.19;90.89
68912;SHT31;55953;51.650;-0.522;2022-11-04T08:08:41;6.22;90.80
68912;SHT31;55953;51.650;-0.522;2022-11-04T08:11:17;6.26;90.80
68912;SHT31;55953;51.650;-0.522;2022-11-04T08:13:49;6.30;90.82
68912;SHT31;55953;51.650;-0.522;2022-11-04T08:16:18;6.33;90.74
68912;SHT31;55953;51.650;-0.522;2022-11-04T08:18:49;6.38;90.70
68912;SHT31;55953;51.650;-0.522;2022-11-04T08:21:21;6.42;90.57
68912;SHT31;55953;51.650;-0.522;2022-11-04T08:23:49;6.46;90.47
68912;SHT31;55953;51.650;-0.522;2022-11-04T08:26:18;6.50;90.51
68912;SHT31;55953;51.650;-0.522;2022-11-04T08:28:48;6.55;90.49
68912;SHT31;55953;51.650;-0.522;2022-11-04T08:31:21;6.63;90.38
68912;SHT31;55953;51.650;-0.522;2022-11-04T08:33:53;6.68;90.24
68912;SHT31;55953;51.650;-0.522;2022-11-04T08:36:24;6.72;90.26
68912;SHT31;55953;51.650;-0.522;2022-11-04T08:38:58;6.74;90.13
68912;SHT31;55953;51.650;-0.522;2022-11-04T08:41:30;6.77;90.10
68912;SHT31;55953;51.650;-0.522;2022-11-04T08:43:59;6.81;90.02
68912;SHT31;55953;51.650;-0.522;2022-11-04T08:46:34;6.85;90.02
68912;SHT31;55953;51.650;-0.522;2022-11-04T08:49:04;6.87;89.60
68912;SHT31;55953;51.650;-0.522;2022-11-04T08:51:37;6.93;89.63
68912;SHT31;55953;51.650;-0.522;2022-11-04T08:54:09;6.96;89.54
68912;SHT31;55953;51.650;-0.522;2022-11-04T08:56:38;7.00;89.28
68912;SHT31;55953;51.650;-0.522;2022-11-04T08:59:06;7.06;89.08
68912;SHT31;55953;51.650;-0.522;2022-11-04T09:01:35;7.12;89.21
68912;SHT31;55953;51.650;-0.522;2022-11-04T09:04:04;7.18;89.15
68912;SHT31;55953;51.650;-0.522;2022-11-04T09:06:34;7.27;89.05
68912;SHT31;55953;51.650;-0.522;2022-11-04T09:09:05;7.33;88.68
68912;SHT31;55953;51.650;-0.522;2022-11-04T09:11:36;7.41;88.95
68912;SHT31;55953;51.650;-0.522;2022-11-04T09:14:06;7.47;88.81
68912;SHT31;55953;51.650;-0.522;2022-11-04T09:16:35;7.53;88.79
68912;SHT31;55953;51.650;-0.522;2022-11-04T09:19:04;7.59;88.69
68912;SHT31;55953;51.650;-0.522;2022-11-04T09:21:33;7.66;88.75
68912;SHT31;55953;51.650;-0.522;2022-11-04T09:24:01;7.72;88.67
68912;SHT31;55953;51.650;-0.522;2022-11-04T09:26:29;7.79;88.72
68912;SHT31;55953;51.650;-0.522;2022-11-04T09:28:57;7.85;88.81
68912;SHT31;55953;51.650;-0.522;2022-11-04T09:31:27;7.91;88.64
68912;SHT31;55953;51.650;-0.522;2022-11-04T09:33:57;7.98;88.58
68912;SHT31;55953;51.650;-0.522;2022-11-04T09:36:25;8.04;88.61
68912;SHT31;55953;51.650;-0.522;2022-11-04T09:38:53;8.12;88.41
68912;SHT31;55953;51.650;-0.522;2022-11-04T09:44:41;8.23;88.00
68912;SHT31;55953;51.650;-0.522;2022-11-04T09:47:38;8.28;87.94
68912;SHT31;55953;51.650;-0.522;2022-11-04T09:50:15;8.30;87.90
68912;SHT31;55953;51.650;-0.522;2022-11-04T09:53:34;8.35;87.77
68912;SHT31;55953;51.650;-0.522;2022-11-04T09:56:15;8.40;87.36
68912;SHT31;55953;51.650;-0.522;2022-11-04T09:58:48;8.43;87.00
68912;SHT31;55953;51.650;-0.522;2022-11-04T10:21:46;8.79;85.91
68912;SHT31;55953;51.650;-0.522;2022-11-04T10:24:38;8.81;85.70
68912;SHT31;55953;51.650;-0.522;2022-11-04T10:27:36;8.84;84.99
68912;SHT31;55953;51.650;-0.522;2022-11-04T10:38:45;8.96;84.06
68912;SHT31;55953;51.650;-0.522;2022-11-04T10:43:47;8.99;83.45
68912;SHT31;55953;51.650;-0.522;2022-11-04T10:52:27;9.13;84.55
68912;SHT31;55953;51.650;-0.522;2022-11-04T10:54:55;9.19;84.61
68912;SHT31;55953;51.650;-0.522;2022-11-04T10:57:24;9.23;83.20
68912;SHT31;55953;51.650;-0.522;2022-11-04T11:00:03;9.26;83.61
68912;SHT31;55953;51.650;-0.522;2022-11-04T11:02:43;9.32;82.90
68912;SHT31;55953;51.650;-0.522;2022-11-04T11:05:23;9.38;82.01
68912;SHT31;55953;51.650;-0.522;2022-11-04T11:07:55;9.46;82.36
68912;SHT31;55953;51.650;-0.522;2022-11-04T11:10:26;9.55;82.21
68912;SHT31;55953;51.650;-0.522;2022-11-04T11:15:30;9.67;81.90
68912;SHT31;55953;51.650;-0.522;2022-11-04T11:18:14;9.73;81.04
68912;SHT31;55953;51.650;-0.522;2022-11-04T11:20:50;9.79;80.86
68912;SHT31;55953;51.650;-0.522;2022-11-04T11:23:45;9.91;81.65
68912;SHT31;55953;51.650;-0.522;2022-11-04T11:26:21;9.99;81.36
68912;SHT31;55953;51.650;-0.522;2022-11-04T11:28:58;10.04;80.27
68912;SHT31;55953;51.650;-0.522;2022-11-04T11:31:35;10.10;79.31
68912;SHT31;55953;51.650;-0.522;2022-11-04T11:34:06;10.17;79.68
68912;SHT31;55953;51.650;-0.522;2022-11-04T11:36:57;10.23;79.21
68912;SHT31;55953;51.650;-0.522;2022-11-04T11:39:30;10.25;79.96
68912;SHT31;55953;51.650;-0.522;2022-11-04T11:42:11;10.29;79.43
68912;SHT31;55953;51.650;-0.522;2022-11-04T11:44:47;10.36;77.86
68912;SHT31;55953;51.650;-0.522;2022-11-04T11:47:20;10.39;77.69
68912;SHT31;55953;51.650;-0.522;2022-11-04T11:50:04;10.42;77.59
68912;SHT31;55953;51.650;-0.522;2022-11-04T11:52:50;10.47;76.48
68912;SHT31;55953;51.650;-0.522;2022-11-04T11:55:28;10.48;76.29
68912;SHT31;55953;51.650;-0.522;2022-11-04T12:01:17;10.56;76.45
68912;SHT31;55953;51.650;-0.522;2022-11-04T12:03:55;10.58;76.30
68912;SHT31;55953;51.650;-0.522;2022-11-04T12:06:48;10.59;76.27
68912;SHT31;55953;51.650;-0.522;2022-11-04T12:10:19;10.65;75.24
68912;SHT31;55953;51.650;-0.522;2022-11-04T12:16:14;10.73;75.91
68912;SHT31;55953;51.650;-0.522;2022-11-04T12:21:58;10.87;75.34
68912;SHT31;55953;51.650;-0.522;2022-11-04T12:24:54;10.93;75.63
68912;SHT31;55953;51.650;-0.522;2022-11-04T12:27:44;11.02;74.41
68912;SHT31;55953;51.650;-0.522;2022-11-04T12:30:23;11.14;74.99
68912;SHT31;55953;51.650;-0.522;2022-11-04T12:35:58;11.29;74.77
68912;SHT31;55953;51.650;-0.522;2022-11-04T12:41:45;11.36;74.81
68912;SHT31;55953;51.650;-0.522;2022-11-04T12:44:47;11.32;74.15
68912;SHT31;55953;51.650;-0.522;2022-11-04T12:47:47;11.37;74.91
68912;SHT31;55953;51.650;-0.522;2022-11-04T12:53:08;11.38;74.46
68912;SHT31;55953;51.650;-0.522;2022-11-04T12:56:04;11.35;74.02
68912;SHT31;55953;51.650;-0.522;2022-11-04T13:01:34;11.48;73.72
68912;SHT31;55953;51.650;-0.522;2022-11-04T13:04:20;11.52;73.84
68912;SHT31;55953;51.650;-0.522;2022-11-04T13:06:59;11.54;74.37
68912;SHT31;55953;51.650;-0.522;2022-11-04T13:09:43;11.52;73.90
68912;SHT31;55953;51.650;-0.522;2022-11-04T13:12:19;11.51;73.89
68912;SHT31;55953;51.650;-0.522;2022-11-04T13:15:02;11.54;73.69
68912;SHT31;55953;51.650;-0.522;2022-11-04T13:17:56;11.61;74.11
68912;SHT31;55953;51.650;-0.522;2022-11-04T13:23:16;11.80;73.33
68912;SHT31;55953;51.650;-0.522;2022-11-04T13:25:54;11.81;72.08
68912;SHT31;55953;51.650;-0.522;2022-11-04T13:28:25;11.79;72.02
68912;SHT31;55953;51.650;-0.522;2022-11-04T13:36:48;11.58;73.02
68912;SHT31;55953;51.650;-0.522;2022-11-04T13:39:38;11.54;73.22
68912;SHT31;55953;51.650;-0.522;2022-11-04T13:43:01;11.48;72.80
68912;SHT31;55953;51.650;-0.522;2022-11-04T13:45:48;11.39;72.41
68912;SHT31;55953;51.650;-0.522;2022-11-04T13:48:22;11.39;72.69
68912;SHT31;55953;51.650;-0.522;2022-11-04T13:51:04;11.40;72.40
68912;SHT31;55953;51.650;-0.522;2022-11-04T13:56:27;11.52;71.99
68912;SHT31;55953;51.650;-0.522;2022-11-04T14:01:43;11.58;72.59
68912;SHT31;55953;51.650;-0.522;2022-11-04T14:06:57;11.59;72.84
68912;SHT31;55953;51.650;-0.522;2022-11-04T14:09:34;11.63;71.70
68912;SHT31;55953;51.650;-0.522;2022-11-04T14:12:38;11.64;72.19
68912;SHT31;55953;51.650;-0.522;2022-11-04T14:15:11;11.69;72.30
68912;SHT31;55953;51.650;-0.522;2022-11-04T14:20:24;11.83;71.41
68912;SHT31;55953;51.650;-0.522;2022-11-04T14:23:00;11.89;72.42
68912;SHT31;55953;51.650;-0.522;2022-11-04T14:36:31;12.02;72.48
68912;SHT31;55953;51.650;-0.522;2022-11-04T14:44:07;12.00;72.76
68912;SHT31;55953;51.650;-0.522;2022-11-04T14:46:47;12.02;72.18
68912;SHT31;55953;51.650;-0.522;2022-11-04T14:49:43;12.03;73.03
68912;SHT31;55953;51.650;-0.522;2022-11-04T14:52:21;12.05;73.60
68912;SHT31;55953;51.650;-0.522;2022-11-04T14:55:03;12.05;73.05
68912;SHT31;55953;51.650;-0.522;2022-11-04T14:57:40;12.02;73.43
68912;SHT31;55953;51.650;-0.522;2022-11-04T15:03:50;11.87;73.71
68912;SHT31;55953;51.650;-0.522;2022-11-04T15:06:23;11.76;73.39
68912;SHT31;55953;51.650;-0.522;2022-11-04T15:09:20;11.72;74.58
68912;SHT31;55953;51.650;-0.522;2022-11-04T15:12:11;11.69;74.66
68912;SHT31;55953;51.650;-0.522;2022-11-04T15:14:59;11.72;74.61
68912;SHT31;55953;51.650;-0.522;2022-11-04T15:17:28;11.73;73.95
68912;SHT31;55953;51.650;-0.522;2022-11-04T15:19:59;11.77;74.51
68912;SHT31;55953;51.650;-0.522;2022-11-04T15:22:31;11.79;73.81
68912;SHT31;55953;51.650;-0.522;2022-11-04T15:25:00;11.77;73.65
68912;SHT31;55953;51.650;-0.522;2022-11-04T15:27:32;11.75;74.09
68912;SHT31;55953;51.650;-0.522;2022-11-04T15:30:02;11.74;74.09
68912;SHT31;55953;51.650;-0.522;2022-11-04T15:32:32;11.73;74.32
68912;SHT31;55953;51.650;-0.522;2022-11-04T15:35:00;11.74;74.36
68912;SHT31;55953;51.650;-0.522;2022-11-04T15:37:29;11.75;74.74
68912;SHT31;55953;51.650;-0.522;2022-11-04T15:39:57;11.73;74.95
68912;SHT31;55953;51.650;-0.522;2022-11-04T15:42:27;11.66;74.62
68912;SHT31;55953;51.650;-0.522;2022-11-04T15:56:23;11.47;75.63
68912;SHT31;55953;51.650;-0.522;2022-11-04T15:58:56;11.48;75.54
68912;SHT31;55953;51.650;-0.522;2022-11-04T16:01:25;11.48;75.85
68912;SHT31;55953;51.650;-0.522;2022-11-04T16:03:56;11.43;76.28
68912;SHT31;55953;51.650;-0.522;2022-11-04T16:09:25;11.36;76.43
68912;SHT31;55953;51.650;-0.522;2022-11-04T16:14:47;11.27;77.27
68912;SHT31;55953;51.650;-0.522;2022-11-04T16:17:22;11.30;77.26
68912;SHT31;55953;51.650;-0.522;2022-11-04T16:19:55;11.26;77.30
68912;SHT31;55953;51.650;-0.522;2022-11-04T16:22:34;11.25;77.49
68912;SHT31;55953;51.650;-0.522;2022-11-04T16:25:06;11.17;77.39
68912;SHT31;55953;51.650;-0.522;2022-11-04T16:27:46;11.04;77.70
68912;SHT31;55953;51.650;-0.522;2022-11-04T16:35:18;10.84;78.44
68912;SHT31;55953;51.650;-0.522;2022-11-04T16:37:51;10.73;78.68
68912;SHT31;55953;51.650;-0.522;2022-11-04T16:40:20;10.70;78.77
68912;SHT31;55953;51.650;-0.522;2022-11-04T16:42:52;10.65;78.67
68912;SHT31;55953;51.650;-0.522;2022-11-04T16:45:24;10.59;78.75
68912;SHT31;55953;51.650;-0.522;2022-11-04T16:47:57;10.50;79.08
68912;SHT31;55953;51.650;-0.522;2022-11-04T16:50:25;10.43;79.28
68912;SHT31;55953;51.650;-0.522;2022-11-04T16:52:55;10.33;79.44
68912;SHT31;55953;51.650;-0.522;2022-11-04T16:55:23;10.24;79.61
68912;SHT31;55953;51.650;-0.522;2022-11-04T16:57:59;10.15;79.83
68912;SHT31;55953;51.650;-0.522;2022-11-04T17:00:31;10.12;79.86
68912;SHT31;55953;51.650;-0.522;2022-11-04T17:03:00;10.03;79.97
68912;SHT31;55953;51.650;-0.522;2022-11-04T17:05:38;9.92;80.29
68912;SHT31;55953;51.650;-0.522;2022-11-04T17:08:07;9.91;80.34
68912;SHT31;55953;51.650;-0.522;2022-11-04T17:10:36;9.81;80.53
68912;SHT31;55953;51.650;-0.522;2022-11-04T17:13:04;9.73;80.70
68912;SHT31;55953;51.650;-0.522;2022-11-04T17:15:32;9.64;80.70
68912;SHT31;55953;51.650;-0.522;2022-11-04T17:18:00;9.52;80.91
68912;SHT31;55953;51.650;-0.522;2022-11-04T17:20:28;9.46;81.18
68912;SHT31;55953;51.650;-0.522;2022-11-04T17:22:58;9.47;81.06
68912;SHT31;55953;51.650;-0.522;2022-11-04T17:25:27;9.44;80.96
68912;SHT31;55953;51.650;-0.522;2022-11-04T17:27:56;9.33;81.09
68912;SHT31;55953;51.650;-0.522;2022-11-04T17:30:24;9.23;81.34
68912;SHT31;55953;51.650;-0.522;2022-11-04T17:32:52;9.13;81.52
68912;SHT31;55953;51.650;-0.522;2022-11-04T17:35:20;9.08;81.67
68912;SHT31;55953;51.650;-0.522;2022-11-04T17:37:51;9.05;81.63
68912;SHT31;55953;51.650;-0.522;2022-11-04T17:40:21;9.02;81.61
68912;SHT31;55953;51.650;-0.522;2022-11-04T17:42:50;8.96;81.71
68912;SHT31;55953;51.650;-0.522;2022-11-04T17:45:40;8.95;81.66
68912;SHT31;55953;51.650;-0.522;2022-11-04T17:48:10;8.95;81.73
68912;SHT31;55953;51.650;-0.522;2022-11-04T17:50:40;8.88;81.71
68912;SHT31;55953;51.650;-0.522;2022-11-04T17:53:08;8.77;81.94
68912;SHT31;55953;51.650;-0.522;2022-11-04T17:55:37;8.72;82.18
68912;SHT31;55953;51.650;-0.522;2022-11-04T17:58:07;8.63;82.18
68912;SHT31;55953;51.650;-0.522;2022-11-04T18:00:35;8.57;82.37
68912;SHT31;55953;51.650;-0.522;2022-11-04T18:03:03;8.56;82.34
68912;SHT31;55953;51.650;-0.522;2022-11-04T18:05:33;8.54;82.22
68912;SHT31;55953;51.650;-0.522;2022-11-04T18:08:01;8.50;82.35
68912;SHT31;55953;51.650;-0.522;2022-11-04T18:10:28;8.43;82.47
68912;SHT31;55953;51.650;-0.522;2022-11-04T18:12:56;8.37;82.72
68912;SHT31;55953;51.650;-0.522;2022-11-04T18:15:24;8.33;82.80
68912;SHT31;55953;51.650;-0.522;2022-11-04T18:17:52;8.32;82.73
68912;SHT31;55953;51.650;-0.522;2022-11-04T18:20:20;8.26;82.89
68912;SHT31;55953;51.650;-0.522;2022-11-04T18:22:48;8.21;83.09
68912;SHT31;55953;51.650;-0.522;2022-11-04T18:25:16;8.25;83.09
68912;SHT31;55953;51.650;-0.522;2022-11-04T18:27:44;8.24;83.02
68912;SHT31;55953;51.650;-0.522;2022-11-04T18:30:15;8.14;83.13
68912;SHT31;55953;51.650;-0.522;2022-11-04T18:32:43;8.03;83.31
68912;SHT31;55953;51.650;-0.522;2022-11-04T18:35:10;7.96;83.41
68912;SHT31;55953;51.650;-0.522;2022-11-04T18:37:38;7.91;83.59
68912;SHT31;55953;51.650;-0.522;2022-11-04T18:40:13;7.87;83.81
68912;SHT31;55953;51.650;-0.522;2022-11-04T18:42:42;7.86;83.78
68912;SHT31;55953;51.650;-0.522;2022-11-04T18:45:11;7.86;83.76
68912;SHT31;55953;51.650;-0.522;2022-11-04T18:47:38;7.86;83.81
68912;SHT31;55953;51.650;-0.522;2022-11-04T18:50:06;7.81;83.70
68912;SHT31;55953;51.650;-0.522;2022-11-04T18:52:34;7.75;83.91
68912;SHT31;55953;51.650;-0.522;2022-11-04T18:55:03;7.74;83.95
68912;SHT31;55953;51.650;-0.522;2022-11-04T18:57:31;7.69;84.10
68912;SHT31;55953;51.650;-0.522;2022-11-04T18:59:59;7.62;84.39
68912;SHT31;55953;51.650;-0.522;2022-11-04T19:02:27;7.61;84.31